createdAt,value
2022-09-07T00:05:48.308Z,25.1
2022-09-07T00:25:54.152Z,25
2022-09-07T00:35:55.045Z,25
2022-09-07T00:45:57.126Z,25.1
2022-09-07T01:06:01.249Z,25
2022-09-07T01:16:03.884Z,25
2022-09-07T01:26:05.946Z,24.9
2022-09-07T01:46:10.404Z,24.9
2022-09-07T02:06:14.664Z,24.8
2022-09-07T02:16:17.265Z,24.7
2022-09-07T02:26:19.598Z,24.6
2022-09-07T02:36:22.087Z,24.5
2022-09-07T02:46:24.552Z,24.4
2022-09-07T02:56:26.602Z,24.4
2022-09-07T03:16:30.625Z,24.3
2022-09-07T03:46:37.592Z,24.2
2022-09-07T04:06:42.322Z,24
2022-09-07T04:26:47.055Z,23.9
2022-09-07T04:46:51.589Z,23.9
2022-09-07T04:56:53.764Z,23.9
2022-09-07T05:06:55.926Z,23.8
2022-09-07T05:16:58.316Z,23.8
2022-09-07T05:27:00.484Z,23.8
2022-09-07T05:57:06.127Z,23.9
2022-09-07T06:07:21.451Z,23.9
2022-09-07T06:17:10.613Z,23.9
2022-09-07T06:27:12.361Z,23.9
2022-09-07T06:37:14.340Z,24
2022-09-07T06:47:16.600Z,24.1
2022-09-07T06:57:18.356Z,24.2
2022-09-07T07:07:20.304Z,24.2
2022-09-07T07:17:22.455Z,24.2
2022-09-07T07:27:24.858Z,24.3
2022-09-07T07:37:28.247Z,24.4
2022-09-07T07:47:29.018Z,24.5
2022-09-07T07:57:30.904Z,24.6
2022-09-07T08:07:33.488Z,24.7
2022-09-07T08:17:36.036Z,24.8
2022-09-07T08:27:38.055Z,24.8
2022-09-07T08:37:40.157Z,24.9
2022-09-07T08:47:42.829Z,24.9
2022-09-07T08:57:45.187Z,25
2022-09-07T09:07:47.300Z,25
2022-09-07T09:17:49.723Z,25
2022-09-07T09:27:52.006Z,25
2022-09-07T09:37:53.713Z,25
2022-09-07T09:47:55.477Z,25
2022-09-07T10:08:00.470Z,25
2022-09-07T10:18:02.547Z,25
2022-09-07T10:28:04.580Z,25
2022-09-07T10:38:07.201Z,25.1
2022-09-07T10:58:11.796Z,25.1
2022-09-07T11:08:14.215Z,25.1
2022-09-07T11:18:16.601Z,25.1
2022-09-07T11:28:18.565Z,25.1
2022-09-07T11:38:20.859Z,25.1
2022-09-07T11:48:22.796Z,25.1
2022-09-07T11:58:24.832Z,25.1
2022-09-07T12:08:27.135Z,25.1
2022-09-07T12:18:29.041Z,25.1
2022-09-07T12:28:31.696Z,25.1
2022-09-07T12:38:33.915Z,25.1
2022-09-07T12:48:35.838Z,25.1
2022-09-07T12:58:37.583Z,25.1
2022-09-07T13:09:01.345Z,25.1
2022-09-07T13:18:48.287Z,25.1
2022-09-07T13:28:50.812Z,25.1
2022-09-07T13:38:52.797Z,25.1
2022-09-07T13:48:54.683Z,25.1
2022-09-07T13:58:56.640Z,25.1
2022-09-07T14:08:59.003Z,25.1
2022-09-07T14:19:01.335Z,25.1
2022-09-07T14:29:03.514Z,25.1
2022-09-07T14:39:05.773Z,25.1
2022-09-07T14:49:08.325Z,25.1
2022-09-07T14:59:10.154Z,25.1
2022-09-07T15:09:12.623Z,25.1
2022-09-07T15:19:14.661Z,25.1
2022-09-07T15:29:17.011Z,25.1
2022-09-07T15:39:19.584Z,25.1
2022-09-07T15:49:22.011Z,25.1
2022-09-07T15:59:24.128Z,25.1
2022-09-07T16:09:26.300Z,25.1
2022-09-07T16:19:28.104Z,25.1
2022-09-07T16:29:30.678Z,25.1
2022-09-07T16:39:32.945Z,25.1
2022-09-07T16:49:35.100Z,25.1
2022-09-07T16:59:37.442Z,25.1
2022-09-07T17:09:39.339Z,25.1
2022-09-07T17:19:41.448Z,25
2022-09-07T17:29:43.768Z,25
2022-09-07T17:39:45.583Z,25
2022-09-07T17:49:47.950Z,25
2022-09-07T18:00:12.308Z,24.9
2022-09-07T18:09:53.069Z,24.9
2022-09-07T18:19:55.472Z,24.9
2022-09-07T18:29:58.145Z,24.9
2022-09-07T18:40:00.747Z,24.9
2022-09-07T18:50:03.088Z,24.8
2022-09-07T19:00:05.658Z,24.8
2022-09-07T19:10:08.123Z,24.8
2022-09-07T19:20:09.956Z,24.8
2022-09-07T19:30:11.820Z,24.8
2022-09-07T19:40:18.555Z,24.7
2022-09-07T19:50:16.639Z,24.7
2022-09-07T20:00:19.212Z,24.6
2022-09-07T20:10:21.077Z,24.6
2022-09-07T20:20:22.911Z,24.5
2022-09-07T20:30:25.577Z,24.5
2022-09-07T20:40:27.603Z,24.4
2022-09-07T20:50:29.504Z,24.4
2022-09-07T21:00:32.132Z,24.3
2022-09-07T21:10:33.813Z,24.3
2022-09-07T21:20:35.838Z,24.2
2022-09-07T21:30:38.392Z,24.2
2022-09-07T21:40:40.385Z,24.1
2022-09-07T21:50:42.477Z,24.1
2022-09-07T22:00:45.059Z,24
2022-09-07T22:10:47.557Z,24
2022-09-07T22:20:49.303Z,23.9
2022-09-07T22:30:51.572Z,23.9
2022-09-07T22:40:54.003Z,23.9
2022-09-07T22:50:56.084Z,23.8
2022-09-07T23:00:58.482Z,23.8
2022-09-07T23:11:00.271Z,23.7
2022-09-07T23:21:02.566Z,23.7
2022-09-07T23:31:04.600Z,23.6
2022-09-07T23:41:06.904Z,23.6
2022-09-07T23:51:08.882Z,23.6
